Time;durP1;ratioP1;P1;durP2;ratioP2;P2;SDS_P1;SDS_P2;PMS_P1;PMS_P2;Temp;Humidity;BMP_temperature;BMP_pressure;BME280_temperature;BME280_humidity;BME280_pressure;Samples;Min_cycle;Max_cycle;Signal;HPM_P1;HPM_P2
2022/08/10 00:01:21;;;;;;;29.58;21.10;;;;;;;;;;5080163;28;20093;-79
2022/08/10 00:03:47;;;;;;;24.23;17.83;;;;;;;;;;5081004;28;20062;-80
2022/08/10 00:06:14;;;;;;;21.35;19.08;;;;;;;;;;5081410;28;20486;-81
2022/08/10 00:08:40;;;;;;;20.65;18.13;;;;;;;;;;5084883;28;20032;-79
2022/08/10 00:11:07;;;;;;;24.20;19.33;;;;;;;;;;5083142;28;20082;-80
2022/08/10 00:13:33;;;;;;;20.20;18.05;;;;;;;;;;5085201;28;20046;-78
2022/08/10 00:15:59;;;;;;;21.63;18.40;;;;;;;;;;5086659;28;20143;-78
2022/08/10 00:18:26;;;;;;;25.85;21.15;;;;;;;;;;5087126;28;20572;-82
2022/08/10 00:20:52;;;;;;;26.08;20.83;;;;;;;;;;5087251;28;20044;-79
2022/08/10 00:23:18;;;;;;;22.83;19.70;;;;;;;;;;5086996;28;20028;-81
2022/08/10 00:25:44;;;;;;;22.13;17.15;;;;;;;;;;5085286;28;20012;-78
2022/08/10 00:28:11;;;;;;;21.23;18.77;;;;;;;;;;5087142;28;20051;-79
2022/08/10 00:30:37;;;;;;;23.58;20.30;;;;;;;;;;5085042;28;20742;-81
2022/08/10 00:33:03;;;;;;;22.90;19.85;;;;;;;;;;5086225;28;20031;-81
2022/08/10 00:35:29;;;;;;;21.40;18.92;;;;;;;;;;5086000;28;20880;-80
2022/08/10 00:37:55;;;;;;;21.15;17.80;;;;;;;;;;5086226;28;20072;-79
2022/08/10 00:40:22;;;;;;;25.48;18.88;;;;;;;;;;5084749;28;20499;-78
2022/08/10 00:42:48;;;;;;;26.05;19.35;;;;;;;;;;5087127;28;20019;-78
2022/08/10 00:45:14;;;;;;;21.80;19.30;;;;;;;;;;5086052;28;20115;-78
2022/08/10 00:47:40;;;;;;;24.13;21.05;;;;;;;;;;5085855;28;20056;-77
2022/08/10 00:50:07;;;;;;;23.35;20.70;;;;;;;;;;5090374;28;20028;-79
2022/08/10 00:52:34;;;;;;;21.20;18.88;;;;;;;;;;5087286;28;20089;-78
2022/08/10 00:55:01;;;;;;;28.63;21.20;;;;;;;;;;5085438;28;20024;-77
2022/08/10 00:57:28;;;;;;;25.83;21.20;;;;;;;;;;5084191;28;20040;-78
2022/08/10 00:59:54;;;;;;;22.73;17.90;;;;;;;;;;5086160;28;20070;-79
2022/08/10 01:02:20;;;;;;;28.45;20.38;;;;;;;;;;5086711;28;20020;-78
2022/08/10 01:04:47;;;;;;;21.83;18.58;;;;;;;;;;5085772;28;20059;-77
2022/08/10 01:07:19;;;;;;;20.85;18.67;;;;;;;;;;5084356;28;20028;-79
2022/08/10 01:09:50;;;;;;;27.38;19.02;;;;;;;;;;5083027;28;20047;-78
2022/08/10 01:12:25;;;;;;;24.20;19.98;;;;;;;;;;5086037;28;20754;-79
2022/08/10 01:15:09;;;;;;;26.52;20.10;;;;;;;;;;5085257;28;20032;-79
2022/08/10 01:17:54;;;;;;;23.70;21.25;;;;;;;;;;5085482;28;20044;-80
2022/08/10 01:20:33;;;;;;;21.33;19.10;;;;;;;;;;5110603;27;20048;-79
2022/08/10 01:23:18;;;;;;;25.77;23.00;;;;;;;;;;5085141;28;20028;-79
2022/08/10 01:25:47;;;;;;;27.52;21.20;;;;;;;;;;5085676;28;20028;-79
2022/08/10 01:28:28;;;;;;;23.50;19.48;;;;;;;;;;5083403;28;20028;-79
2022/08/10 01:30:57;;;;;;;26.35;21.50;;;;;;;;;;5086111;28;20487;-79
2022/08/10 01:33:36;;;;;;;21.10;18.75;;;;;;;;;;5084896;28;20069;-79
2022/08/10 01:36:09;;;;;;;22.20;19.50;;;;;;;;;;5084656;28;20147;-79
2022/08/10 01:38:54;;;;;;;23.40;20.77;;;;;;;;;;5086346;28;20094;-80
2022/08/10 01:41:23;;;;;;;22.70;19.50;;;;;;;;;;5085338;28;20028;-80
2022/08/10 01:43:52;;;;;;;22.25;17.92;;;;;;;;;;5083722;28;20024;-78
2022/08/10 01:46:18;;;;;;;25.33;20.02;;;;;;;;;;5084713;28;20479;-77
2022/08/10 01:48:48;;;;;;;22.48;18.17;;;;;;;;;;5083520;28;20074;-79
2022/08/10 01:51:16;;;;;;;20.92;18.80;;;;;;;;;;5089738;28;20032;-78
2022/08/10 01:53:50;;;;;;;23.95;20.70;;;;;;;;;;5085192;28;20028;-78
2022/08/10 01:56:17;;;;;;;25.05;19.17;;;;;;;;;;5084154;28;20036;-79
2022/08/10 01:58:44;;;;;;;23.20;18.48;;;;;;;;;;5084868;28;20126;-79
2022/08/10 02:01:13;;;;;;;22.98;18.27;;;;;;;;;;5084393;28;20020;-80
2022/08/10 02:03:41;;;;;;;24.10;18.25;;;;;;;;;;5084901;28;20027;-78
2022/08/10 02:06:07;;;;;;;20.23;17.88;;;;;;;;;;5085563;28;20024;-79
2022/08/10 02:08:34;;;;;;;22.40;18.40;;;;;;;;;;5083036;28;20437;-80
2022/08/10 02:11:01;;;;;;;25.45;18.45;;;;;;;;;;5085486;28;20024;-80
2022/08/10 02:13:27;;;;;;;24.90;21.17;;;;;;;;;;5087810;28;20028;-81
2022/08/10 02:15:56;;;;;;;21.58;19.27;;;;;;;;;;5091713;28;20036;-80
2022/08/10 02:18:23;;;;;;;21.52;19.25;;;;;;;;;;5124600;27;20344;-80
2022/08/10 02:20:50;;;;;;;25.92;19.85;;;;;;;;;;5091182;28;20040;-79
2022/08/10 02:23:21;;;;;;;24.05;21.48;;;;;;;;;;5091556;28;20475;-80
2022/08/10 02:25:48;;;;;;;27.13;19.52;;;;;;;;;;5124044;27;20455;-79
2022/08/10 02:28:16;;;;;;;24.48;20.00;;;;;;;;;;5091316;28;20016;-77
2022/08/10 02:30:43;;;;;;;25.30;20.95;;;;;;;;;;5124048;27;20459;-78
2022/08/10 02:33:09;;;;;;;25.80;22.63;;;;;;;;;;5114160;27;20020;-78
2022/08/10 02:35:36;;;;;;;25.58;21.13;;;;;;;;;;5102138;28;20024;-77
2022/08/10 02:38:04;;;;;;;26.30;20.23;;;;;;;;;;5123818;27;20019;-79
2022/08/10 02:40:30;;;;;;;25.90;21.67;;;;;;;;;;5123668;27;20023;-78
2022/08/10 02:43:09;;;;;;;23.73;20.35;;;;;;;;;;5123661;27;20016;-80
2022/08/10 02:45:41;;;;;;;22.15;19.83;;;;;;;;;;5089048;28;20022;-78
2022/08/10 02:48:28;;;;;;;25.10;22.47;;;;;;;;;;5120817;27;20128;-78
2022/08/10 02:50:57;;;;;;;28.58;21.40;;;;;;;;;;5096263;28;20028;-78
2022/08/10 02:53:41;;;;;;;21.98;19.67;;;;;;;;;;5123782;27;20374;-78
2022/08/10 02:56:33;;;;;;;26.08;19.73;;;;;;;;;;5123250;27;20028;-78
2022/08/10 02:59:15;;;;;;;21.02;18.85;;;;;;;;;;5047566;28;20064;-78
2022/08/10 03:01:42;;;;;;;23.23;20.77;;;;;;;;;;5087971;28;20020;-79
2022/08/10 03:04:15;;;;;;;24.65;20.20;;;;;;;;;;5080088;28;20016;-79
2022/08/10 03:06:43;;;;;;;25.63;20.93;;;;;;;;;;5090741;28;20459;-80
2022/08/10 03:09:10;;;;;;;23.80;20.38;;;;;;;;;;5089191;28;20012;-79
2022/08/10 03:11:37;;;;;;;23.33;19.88;;;;;;;;;;5123840;27;20031;-78
2022/08/10 03:14:04;;;;;;;27.27;21.08;;;;;;;;;;5123138;28;20026;-78
2022/08/10 03:16:31;;;;;;;25.20;22.50;;;;;;;;;;5090582;28;20040;-79
2022/08/10 03:18:58;;;;;;;22.50;19.40;;;;;;;;;;5090561;28;20008;-79
2022/08/10 03:21:26;;;;;;;23.20;19.65;;;;;;;;;;5123075;28;20040;-78
2022/08/10 03:23:53;;;;;;;29.30;19.08;;;;;;;;;;5122568;27;20023;-78
2022/08/10 03:26:19;;;;;;;27.58;20.08;;;;;;;;;;5123145;28;20411;-77
2022/08/10 03:28:46;;;;;;;26.38;21.48;;;;;;;;;;5073187;28;20020;-77
2022/08/10 03:31:12;;;;;;;30.02;23.02;;;;;;;;;;5110579;28;20104;-77
2022/08/10 03:33:39;;;;;;;25.48;21.30;;;;;;;;;;5090364;28;20052;-77
2022/08/10 03:36:05;;;;;;;23.73;20.98;;;;;;;;;;5089855;28;20034;-79
2022/08/10 03:38:32;;;;;;;26.73;20.55;;;;;;;;;;5089164;28;20413;-81
2022/08/10 03:41:01;;;;;;;21.60;18.00;;;;;;;;;;5088878;28;20012;-77
2022/08/10 03:43:27;;;;;;;22.73;18.92;;;;;;;;;;5090158;28;20021;-79
2022/08/10 03:45:55;;;;;;;27.05;18.42;;;;;;;;;;5090286;28;20028;-78
2022/08/10 03:48:21;;;;;;;19.02;16.98;;;;;;;;;;5125374;27;20471;-78
2022/08/10 03:50:48;;;;;;;24.77;19.88;;;;;;;;;;5127457;27;20016;-78
2022/08/10 03:53:15;;;;;;;24.33;21.70;;;;;;;;;;5079735;28;20382;-77
2022/08/10 03:55:41;;;;;;;30.38;21.38;;;;;;;;;;5083179;28;20024;-78
2022/08/10 03:58:07;;;;;;;27.85;20.27;;;;;;;;;;5112305;27;20017;-77
2022/08/10 04:00:33;;;;;;;27.17;20.30;;;;;;;;;;5127784;27;20486;-77
2022/08/10 04:03:01;;;;;;;32.13;24.23;;;;;;;;;;5080160;28;20017;-78
2022/08/10 04:05:27;;;;;;;30.98;22.92;;;;;;;;;;5093259;28;20379;-77
2022/08/10 04:07:54;;;;;;;30.85;24.90;;;;;;;;;;5126488;27;20020;-78
2022/08/10 04:10:20;;;;;;;26.00;18.98;;;;;;;;;;5092198;28;20028;-79
2022/08/10 04:12:46;;;;;;;27.95;22.83;;;;;;;;;;5092345;28;20020;-77
2022/08/10 04:15:12;;;;;;;28.27;23.13;;;;;;;;;;5092142;28;20028;-79
2022/08/10 04:17:38;;;;;;;26.48;21.75;;;;;;;;;;5093360;28;20079;-77
2022/08/10 04:20:05;;;;;;;25.55;20.38;;;;;;;;;;5093062;28;20652;-78
2022/08/10 04:22:33;;;;;;;24.85;19.77;;;;;;;;;;5087002;28;20070;-76
2022/08/10 04:25:01;;;;;;;32.63;24.17;;;;;;;;;;5085876;28;20020;-77
2022/08/10 04:27:27;;;;;;;26.98;21.58;;;;;;;;;;5111904;27;20023;-78
2022/08/10 04:29:54;;;;;;;27.77;23.65;;;;;;;;;;5091919;28;20035;-79
2022/08/10 04:32:20;;;;;;;30.20;24.88;;;;;;;;;;5091845;28;20405;-79
2022/08/10 04:34:47;;;;;;;33.83;25.13;;;;;;;;;;5125994;27;20527;-78
2022/08/10 04:37:14;;;;;;;35.03;25.92;;;;;;;;;;5092186;28;20035;-77
2022/08/10 04:39:40;;;;;;;31.30;24.08;;;;;;;;;;5112993;27;20524;-77
2022/08/10 04:42:06;;;;;;;32.53;23.70;;;;;;;;;;5093261;28;20138;-77
2022/08/10 04:44:32;;;;;;;33.50;25.55;;;;;;;;;;5092843;28;20027;-79
2022/08/10 04:46:58;;;;;;;35.70;25.40;;;;;;;;;;5093079;28;20048;-77
2022/08/10 04:49:24;;;;;;;32.28;26.83;;;;;;;;;;5126024;27;20020;-79
2022/08/10 04:51:50;;;;;;;34.33;26.90;;;;;;;;;;5092496;28;20012;-78
2022/08/10 04:54:16;;;;;;;32.03;23.70;;;;;;;;;;5093066;28;20043;-77
2022/08/10 04:56:42;;;;;;;33.40;25.55;;;;;;;;;;5125482;27;20020;-76
2022/08/10 04:59:09;;;;;;;33.92;27.38;;;;;;;;;;5125430;27;20439;-77
2022/08/10 05:01:36;;;;;;;35.58;26.80;;;;;;;;;;5091483;28;20089;-78
2022/08/10 05:04:02;;;;;;;37.13;26.83;;;;;;;;;;5125258;27;20111;-79
2022/08/10 05:06:28;;;;;;;33.55;27.70;;;;;;;;;;5092578;28;20020;-78
2022/08/10 05:08:54;;;;;;;41.15;29.05;;;;;;;;;;5086031;28;20099;-78
2022/08/10 05:11:20;;;;;;;53.55;29.15;;;;;;;;;;5085010;28;20016;-76
2022/08/10 05:13:46;;;;;;;36.42;28.83;;;;;;;;;;5125194;27;20455;-75
2022/08/10 05:16:12;;;;;;;32.30;26.95;;;;;;;;;;5114757;27;20032;-75
2022/08/10 05:18:38;;;;;;;34.40;25.70;;;;;;;;;;5121457;27;20367;-77
2022/08/10 05:21:04;;;;;;;38.17;27.50;;;;;;;;;;5091423;28;20517;-76
2022/08/10 05:23:30;;;;;;;49.85;37.85;;;;;;;;;;5090946;28;20417;-77
2022/08/10 05:25:56;;;;;;;40.55;30.98;;;;;;;;;;5088299;28;20520;-79
2022/08/10 05:28:22;;;;;;;38.80;30.23;;;;;;;;;;5091868;28;20103;-78
2022/08/10 05:30:48;;;;;;;30.42;26.73;;;;;;;;;;5090068;28;20015;-77
2022/08/10 05:33:14;;;;;;;33.83;29.98;;;;;;;;;;5090630;28;20017;-76
2022/08/10 05:35:40;;;;;;;38.13;30.35;;;;;;;;;;5089880;28;20035;-78
2022/08/10 05:38:09;;;;;;;36.67;28.42;;;;;;;;;;5091929;28;20016;-77
2022/08/10 05:40:36;;;;;;;42.55;30.05;;;;;;;;;;5077243;28;20435;-77
2022/08/10 05:43:02;;;;;;;38.00;31.92;;;;;;;;;;5093094;28;20040;-76
2022/08/10 05:45:28;;;;;;;36.92;28.77;;;;;;;;;;5124559;27;20017;-76
2022/08/10 05:47:54;;;;;;;32.67;27.83;;;;;;;;;;5090299;28;20016;-77
2022/08/10 05:50:21;;;;;;;39.53;28.48;;;;;;;;;;5091958;28;20047;-77
2022/08/10 05:52:47;;;;;;;31.70;27.45;;;;;;;;;;5089984;28;20016;-78
2022/08/10 05:55:13;;;;;;;32.63;28.58;;;;;;;;;;5085581;28;20016;-77
2022/08/10 05:57:40;;;;;;;33.15;28.35;;;;;;;;;;5082481;28;20036;-75
2022/08/10 06:00:08;;;;;;;33.53;28.10;;;;;;;;;;5090268;28;20018;-77
2022/08/10 06:02:40;;;;;;;36.50;28.90;;;;;;;;;;5089724;28;20023;-77
2022/08/10 06:05:11;;;;;;;31.63;25.08;;;;;;;;;;5091315;28;20024;-76
2022/08/10 06:07:39;;;;;;;35.00;26.08;;;;;;;;;;5113804;27;20046;-77
2022/08/10 06:10:07;;;;;;;31.45;26.77;;;;;;;;;;5118877;27;20024;-79
2022/08/10 06:12:34;;;;;;;36.80;28.48;;;;;;;;;;5123223;27;20020;-75
2022/08/10 06:15:00;;;;;;;30.27;25.33;;;;;;;;;;5089792;28;20024;-79
2022/08/10 06:17:28;;;;;;;34.42;28.02;;;;;;;;;;5123286;27;20051;-77
2022/08/10 06:19:55;;;;;;;32.78;27.27;;;;;;;;;;5090891;28;20020;-78
2022/08/10 06:22:21;;;;;;;34.90;25.25;;;;;;;;;;5089010;28;20371;-77
2022/08/10 06:24:47;;;;;;;37.05;25.83;;;;;;;;;;5123874;27;20016;-75
2022/08/10 06:27:13;;;;;;;37.45;29.05;;;;;;;;;;5122648;27;20019;-76
2022/08/10 06:29:41;;;;;;;26.25;23.42;;;;;;;;;;5089855;28;20020;-76
2022/08/10 06:32:08;;;;;;;34.08;25.83;;;;;;;;;;5123709;27;20165;-77
2022/08/10 06:34:46;;;;;;;30.48;24.50;;;;;;;;;;5091330;28;20095;-75
2022/08/10 06:37:13;;;;;;;29.83;25.38;;;;;;;;;;5083524;28;20048;-76
2022/08/10 06:39:39;;;;;;;30.48;24.00;;;;;;;;;;5090934;28;20020;-79
2022/08/10 06:42:09;;;;;;;27.48;23.45;;;;;;;;;;5077099;28;20032;-80
2022/08/10 06:44:39;;;;;;;33.40;26.92;;;;;;;;;;5102827;28;20020;-78
2022/08/10 06:47:07;;;;;;;31.13;26.63;;;;;;;;;;5082870;28;20008;-78
2022/08/10 06:49:33;;;;;;;28.95;20.63;;;;;;;;;;5121447;27;20020;-77
2022/08/10 06:52:00;;;;;;;31.75;24.75;;;;;;;;;;5108084;27;20020;-77
2022/08/10 06:54:27;;;;;;;34.03;25.50;;;;;;;;;;5090813;28;20021;-76
2022/08/10 06:56:55;;;;;;;30.80;25.77;;;;;;;;;;5090714;28;20038;-77
2022/08/10 06:59:40;;;;;;;32.95;26.15;;;;;;;;;;5090752;28;20020;-76
2022/08/10 07:02:11;;;;;;;34.88;26.33;;;;;;;;;;5075071;28;20056;-77
2022/08/10 07:04:45;;;;;;;28.85;25.02;;;;;;;;;;5123358;27;20567;-77
2022/08/10 07:07:16;;;;;;;32.17;26.70;;;;;;;;;;5091014;28;20020;-80
2022/08/10 07:09:43;;;;;;;33.38;27.92;;;;;;;;;;5123217;27;20107;-78
2022/08/10 07:12:10;;;;;;;34.00;29.13;;;;;;;;;;5089626;28;20020;-77
2022/08/10 07:14:38;;;;;;;32.25;26.02;;;;;;;;;;5088817;28;20024;-79
2022/08/10 07:17:05;;;;;;;32.40;28.00;;;;;;;;;;5088416;28;20039;-79
2022/08/10 07:19:31;;;;;;;35.78;29.20;;;;;;;;;;5111646;27;20483;-76
2022/08/10 07:21:58;;;;;;;51.65;42.05;;;;;;;;;;5088485;28;20070;-77
2022/08/10 07:24:25;;;;;;;34.30;28.73;;;;;;;;;;5117783;27;20035;-75
2022/08/10 07:26:53;;;;;;;40.90;31.75;;;;;;;;;;5092422;28;20031;-77
2022/08/10 07:29:20;;;;;;;36.60;30.48;;;;;;;;;;5092192;28;20020;-78
2022/08/10 07:31:48;;;;;;;34.65;29.25;;;;;;;;;;5093120;28;20016;-78
2022/08/10 07:34:15;;;;;;;48.83;39.40;;;;;;;;;;5127100;27;20098;-79
2022/08/10 07:36:42;;;;;;;36.95;32.85;;;;;;;;;;5127142;27;20064;-78
2022/08/10 07:39:09;;;;;;;46.70;40.67;;;;;;;;;;5093710;28;20016;-78
2022/08/10 07:41:39;;;;;;;35.95;31.50;;;;;;;;;;5094309;28;20013;-78
2022/08/10 07:44:06;;;;;;;34.83;30.70;;;;;;;;;;5124967;27;20051;-77
2022/08/10 07:46:33;;;;;;;34.03;29.38;;;;;;;;;;5093145;28;20020;-81
2022/08/10 07:49:02;;;;;;;32.53;29.00;;;;;;;;;;5082211;28;20042;-77
2022/08/10 07:51:31;;;;;;;34.67;30.92;;;;;;;;;;5090712;28;20015;-76
2022/08/10 07:53:59;;;;;;;34.72;30.40;;;;;;;;;;5126729;27;20023;-77
2022/08/10 07:56:26;;;;;;;33.25;26.70;;;;;;;;;;5093632;28;20081;-76
2022/08/10 07:59:09;;;;;;;35.38;26.30;;;;;;;;;;5093675;28;20150;-76
2022/08/10 08:01:37;;;;;;;35.10;31.15;;;;;;;;;;5093380;28;20031;-77
2022/08/10 08:04:05;;;;;;;35.17;30.45;;;;;;;;;;5091570;28;20170;-79
2022/08/10 08:06:32;;;;;;;34.38;30.63;;;;;;;;;;5093157;28;20043;-77
2022/08/10 08:09:02;;;;;;;35.50;29.08;;;;;;;;;;5090457;28;20036;-79
2022/08/10 08:11:28;;;;;;;33.70;30.17;;;;;;;;;;5093491;28;20012;-78
2022/08/10 08:13:54;;;;;;;33.90;29.67;;;;;;;;;;5090549;28;20561;-78
2022/08/10 08:16:21;;;;;;;32.70;28.90;;;;;;;;;;5081563;28;20032;-76
2022/08/10 08:18:49;;;;;;;31.73;28.40;;;;;;;;;;5125629;27;20016;-78
2022/08/10 08:21:15;;;;;;;33.88;30.15;;;;;;;;;;5091924;28;20068;-77
2022/08/10 08:23:42;;;;;;;35.13;30.63;;;;;;;;;;5093022;28;20112;-76
2022/08/10 08:26:09;;;;;;;30.25;27.05;;;;;;;;;;5092988;28;20471;-78
2022/08/10 08:28:36;;;;;;;33.70;27.92;;;;;;;;;;5092877;28;20123;-79
2022/08/10 08:31:03;;;;;;;36.67;29.23;;;;;;;;;;5093218;28;20022;-79
2022/08/10 08:33:29;;;;;;;35.75;29.90;;;;;;;;;;5125365;27;20024;-76
2022/08/10 08:35:56;;;;;;;31.20;27.90;;;;;;;;;;5091819;28;20526;-78
2022/08/10 08:38:23;;;;;;;32.22;28.73;;;;;;;;;;5117497;27;20028;-78
2022/08/10 08:40:54;;;;;;;33.85;26.83;;;;;;;;;;5105169;28;20043;-77
2022/08/10 08:43:30;;;;;;;30.83;27.63;;;;;;;;;;5092749;28;20032;-79
2022/08/10 08:45:59;;;;;;;33.38;26.73;;;;;;;;;;5092095;28;20489;-77
2022/08/10 08:48:35;;;;;;;29.83;23.08;;;;;;;;;;5092547;28;20040;-78
2022/08/10 08:51:10;;;;;;;31.75;27.35;;;;;;;;;;5125185;27;20062;-77
2022/08/10 08:53:43;;;;;;;29.00;24.83;;;;;;;;;;5125568;27;20758;-77
2022/08/10 08:56:09;;;;;;;27.77;21.98;;;;;;;;;;5124734;27;20490;-77
2022/08/10 08:58:36;;;;;;;30.42;24.23;;;;;;;;;;5092868;28;20479;-78
2022/08/10 09:01:08;;;;;;;30.75;25.65;;;;;;;;;;5091464;28;20552;-77
2022/08/10 09:03:51;;;;;;;27.60;24.52;;;;;;;;;;5126407;27;20038;-78
2022/08/10 09:06:32;;;;;;;31.92;26.08;;;;;;;;;;5092399;28;20122;-78
2022/08/10 09:09:01;;;;;;;21.48;14.00;;;;;;;;;;5094280;28;20440;-76
2022/08/10 09:11:27;;;;;;;31.25;26.48;;;;;;;;;;5092135;28;20081;-77
2022/08/10 09:14:05;;;;;;;33.30;25.17;;;;;;;;;;5088835;28;20505;-79
2022/08/10 09:16:44;;;;;;;29.77;26.63;;;;;;;;;;5081997;28;20040;-79
2022/08/10 09:19:10;;;;;;;29.35;25.33;;;;;;;;;;5091498;28;20623;-80
2022/08/10 09:21:54;;;;;;;28.52;25.27;;;;;;;;;;5092252;28;20055;-79
2022/08/10 09:24:25;;;;;;;34.15;27.48;;;;;;;;;;5124466;27;20387;-79
2022/08/10 09:26:52;;;;;;;25.67;20.38;;;;;;;;;;5091893;28;20609;-78
2022/08/10 09:29:29;;;;;;;23.83;19.95;;;;;;;;;;5091756;28;20047;-77
2022/08/10 09:32:08;;;;;;;26.00;23.17;;;;;;;;;;5085839;28;20070;-79
2022/08/10 09:34:45;;;;;;;24.77;21.73;;;;;;;;;;5072027;28;20078;-78
2022/08/10 09:37:19;;;;;;;23.55;19.02;;;;;;;;;;5078068;28;20042;-77
2022/08/10 09:39:51;;;;;;;26.30;19.55;;;;;;;;;;5090307;28;20099;-77
2022/08/10 09:42:24;;;;;;;27.48;23.20;;;;;;;;;;5091666;28;20020;-76
2022/08/10 09:45:09;;;;;;;26.88;21.10;;;;;;;;;;5090815;28;20024;-77
2022/08/10 09:47:55;;;;;;;25.10;21.98;;;;;;;;;;5091903;28;20058;-79
2022/08/10 09:50:24;;;;;;;25.63;22.33;;;;;;;;;;5085311;28;20028;-78
2022/08/10 09:53:09;;;;;;;24.48;18.55;;;;;;;;;;5091324;28;20024;-78
2022/08/10 09:55:42;;;;;;;27.23;21.45;;;;;;;;;;5080667;28;20032;-79
2022/08/10 09:58:08;;;;;;;24.23;21.58;;;;;;;;;;5091242;28;20112;-79
2022/08/10 10:00:37;;;;;;;20.20;18.05;;;;;;;;;;5123669;27;20089;-78
2022/08/10 10:03:22;;;;;;;20.90;18.58;;;;;;;;;;5090480;28;20107;-79
2022/08/10 10:05:57;;;;;;;52.42;47.00;;;;;;;;;;5089084;28;20020;-80
2022/08/10 10:08:32;;;;;;;17.15;14.27;;;;;;;;;;5090947;28;20372;-80
2022/08/10 10:11:10;;;;;;;23.85;19.02;;;;;;;;;;5122728;27;20039;-79
2022/08/10 10:13:42;;;;;;;36.60;32.65;;;;;;;;;;5086899;28;20032;-78
2022/08/10 10:16:31;;;;;;;25.27;19.58;;;;;;;;;;5091143;28;20044;-77
2022/08/10 10:19:17;;;;;;;20.52;18.42;;;;;;;;;;5062211;28;20032;-79
2022/08/10 10:22:04;;;;;;;17.52;15.50;;;;;;;;;;5068350;28;20134;-77
2022/08/10 10:24:42;;;;;;;15.25;13.20;;;;;;;;;;5068024;28;20036;-76
2022/08/10 10:27:35;;;;;;;22.55;18.33;;;;;;;;;;5123438;27;20024;-79
2022/08/10 10:30:09;;;;;;;12.48;9.27;;;;;;;;;;5088886;28;20020;-79
2022/08/10 10:32:43;;;;;;;9.73;6.13;;;;;;;;;;5089979;28;20020;-78
2022/08/10 10:35:22;;;;;;;8.32;7.43;;;;;;;;;;5086917;28;20031;-77
2022/08/10 10:37:50;;;;;;;12.05;8.88;;;;;;;;;;5090903;28;20105;-78
2022/08/10 10:40:16;;;;;;;11.30;9.43;;;;;;;;;;5090319;28;20032;-77
2022/08/10 10:42:50;;;;;;;8.68;6.95;;;;;;;;;;5099989;28;20060;-78
2022/08/10 10:45:16;;;;;;;8.07;7.28;;;;;;;;;;5090581;28;20150;-78
2022/08/10 10:47:45;;;;;;;13.25;9.13;;;;;;;;;;5090385;28;20433;-78
2022/08/10 10:50:11;;;;;;;14.70;7.57;;;;;;;;;;5076544;28;20043;-75
2022/08/10 10:52:38;;;;;;;16.42;11.93;;;;;;;;;;5081194;28;20013;-74
2022/08/10 10:55:19;;;;;;;9.93;7.25;;;;;;;;;;5093263;28;20375;-77
2022/08/10 10:57:48;;;;;;;9.23;7.43;;;;;;;;;;5090598;28;20040;-76
2022/08/10 11:00:20;;;;;;;8.10;6.00;;;;;;;;;;5089659;28;20043;-76
2022/08/10 11:02:46;;;;;;;10.35;8.80;;;;;;;;;;5090395;28;20350;-77
2022/08/10 11:05:24;;;;;;;9.90;8.10;;;;;;;;;;5090202;28;20077;-75
2022/08/10 11:07:57;;;;;;;10.30;6.93;;;;;;;;;;5090239;28;20111;-74
2022/08/10 11:10:23;;;;;;;;;;;;;;;;;;5090885;28;20031;-75
2022/08/10 11:12:55;;;;;;;9.77;8.23;;;;;;;;;;5089715;28;20282;-77
2022/08/10 11:15:26;;;;;;;9.07;8.07;;;;;;;;;;5089166;28;20020;-76
2022/08/10 11:17:56;;;;;;;13.18;7.03;;;;;;;;;;5121936;27;20028;-77
2022/08/10 11:20:42;;;;;;;8.45;7.22;;;;;;;;;;5090350;28;20123;-75
2022/08/10 11:23:11;;;;;;;7.90;7.07;;;;;;;;;;5089286;28;20502;-77
2022/08/10 11:25:40;;;;;;;10.95;9.43;;;;;;;;;;5088186;28;20164;-74
2022/08/10 11:28:22;;;;;;;8.13;7.03;;;;;;;;;;5090398;28;20021;-74
2022/08/10 11:31:06;;;;;;;7.65;6.63;;;;;;;;;;5096474;28;20035;-74
2022/08/10 11:33:35;;;;;;;6.13;5.53;;;;;;;;;;5090320;28;20138;-74
2022/08/10 11:36:03;;;;;;;7.85;6.20;;;;;;;;;;5089994;28;20091;-75
2022/08/10 11:38:39;;;;;;;21.35;15.98;;;;;;;;;;5090544;28;20024;-77
2022/08/10 11:41:05;;;;;;;10.52;7.20;;;;;;;;;;5089700;28;20048;-74
2022/08/10 11:43:34;;;;;;;7.65;6.95;;;;;;;;;;5088961;28;20028;-76
2022/08/10 11:46:19;;;;;;;10.65;9.32;;;;;;;;;;5088458;28;20070;-75
2022/08/10 11:48:50;;;;;;;7.03;5.75;;;;;;;;;;5098202;28;20051;-76
2022/08/10 11:51:22;;;;;;;10.40;8.02;;;;;;;;;;5087482;28;20119;-76
2022/08/10 11:54:11;;;;;;;10.25;9.23;;;;;;;;;;5089698;28;20016;-75
2022/08/10 11:56:37;;;;;;;11.27;10.13;;;;;;;;;;5086711;28;20048;-76
2022/08/10 12:01:50;;;;;;;8.45;7.50;;;;;;;;;;5089447;28;20043;-77
2022/08/10 12:04:16;;;;;;;9.68;8.07;;;;;;;;;;5089606;28;20024;-78
2022/08/10 12:06:43;;;;;;;7.45;5.63;;;;;;;;;;5089279;28;20020;-76
2022/08/10 12:09:11;;;;;;;14.65;10.27;;;;;;;;;;5091290;28;20027;-76
2022/08/10 12:11:37;;;;;;;22.02;15.38;;;;;;;;;;5094400;28;20028;-77
2022/08/10 12:14:06;;;;;;;8.52;6.72;;;;;;;;;;5092605;28;20028;-75
2022/08/10 12:16:36;;;;;;;11.57;8.95;;;;;;;;;;5089788;28;20094;-75
2022/08/10 12:19:05;;;;;;;7.50;5.75;;;;;;;;;;5083250;28;20084;-75
2022/08/10 12:21:38;;;;;;;10.00;6.72;;;;;;;;;;5090873;28;20056;-75
2022/08/10 12:24:07;;;;;;;8.95;7.75;;;;;;;;;;5092142;28;20036;-78
2022/08/10 12:26:36;;;;;;;8.25;5.45;;;;;;;;;;5092631;28;20046;-77
2022/08/10 12:29:23;;;;;;;7.22;5.38;;;;;;;;;;5092876;28;20119;-77
2022/08/10 12:32:08;;;;;;;8.85;4.68;;;;;;;;;;5090507;28;20024;-78
2022/08/10 12:34:47;;;;;;;8.43;7.55;;;;;;;;;;5091358;28;20024;-77
2022/08/10 12:37:22;;;;;;;6.28;5.25;;;;;;;;;;5091710;28;20027;-75
2022/08/10 12:39:48;;;;;;;9.52;6.35;;;;;;;;;;5091575;28;20032;-77
2022/08/10 12:42:26;;;;;;;7.53;5.63;;;;;;;;;;5092290;28;20407;-74
2022/08/10 12:45:05;;;;;;;7.28;3.95;;;;;;;;;;5080784;28;20020;-75
2022/08/10 12:47:34;;;;;;;7.68;5.20;;;;;;;;;;5091093;28;20027;-75
2022/08/10 12:50:05;;;;;;;16.30;10.02;;;;;;;;;;5092059;28;20104;-75
2022/08/10 12:52:42;;;;;;;12.48;10.85;;;;;;;;;;5088043;28;20124;-76
2022/08/10 12:55:09;;;;;;;8.45;6.68;;;;;;;;;;5087605;28;20036;-76
2022/08/10 12:57:36;;;;;;;9.80;8.55;;;;;;;;;;5087133;28;20219;-74
2022/08/10 13:00:05;;;;;;;9.43;8.30;;;;;;;;;;5087486;28;20031;-74
2022/08/10 13:02:33;;;;;;;6.72;5.78;;;;;;;;;;5093658;28;20035;-74
2022/08/10 13:05:01;;;;;;;10.38;6.20;;;;;;;;;;5089540;28;20527;-74
2022/08/10 13:07:31;;;;;;;12.82;9.68;;;;;;;;;;5092581;28;20109;-74
2022/08/10 13:10:17;;;;;;;7.60;5.70;;;;;;;;;;5090381;28;20062;-74
2022/08/10 13:12:45;;;;;;;10.82;8.57;;;;;;;;;;5091392;28;20486;-74
2022/08/10 13:15:25;;;;;;;8.80;7.95;;;;;;;;;;5120795;27;20391;-75
2022/08/10 13:17:53;;;;;;;19.40;8.93;;;;;;;;;;5091883;28;20574;-75
2022/08/10 13:20:24;;;;;;;14.25;12.30;;;;;;;;;;5090596;28;20125;-77
2022/08/10 13:22:51;;;;;;;6.63;4.85;;;;;;;;;;5091608;28;20016;-78
2022/08/10 13:25:19;;;;;;;5.35;3.92;;;;;;;;;;5091207;28;20051;-75
2022/08/10 13:27:46;;;;;;;6.57;5.03;;;;;;;;;;5089636;28;20028;-76
2022/08/10 13:30:12;;;;;;;7.82;7.10;;;;;;;;;;5090386;28;20099;-76
2022/08/10 13:32:39;;;;;;;6.30;4.88;;;;;;;;;;5090260;28;20108;-76
2022/08/10 13:35:10;;;;;;;16.35;14.65;;;;;;;;;;5089172;28;20020;-74
2022/08/10 13:37:37;;;;;;;5.93;4.78;;;;;;;;;;5082014;28;20036;-76
2022/08/10 13:40:04;;;;;;;10.90;6.40;;;;;;;;;;5092497;28;20073;-75
2022/08/10 13:42:33;;;;;;;6.47;4.97;;;;;;;;;;5091938;28;20024;-75
2022/08/10 13:45:04;;;;;;;15.50;13.88;;;;;;;;;;5125267;27;20107;-74
2022/08/10 13:47:31;;;;;;;5.13;4.60;;;;;;;;;;5092665;28;20108;-75
2022/08/10 13:50:08;;;;;;;10.57;8.07;;;;;;;;;;5092274;28;20032;-76
2022/08/10 13:52:36;;;;;;;11.15;9.23;;;;;;;;;;5091827;28;20508;-75
2022/08/10 13:55:09;;;;;;;16.35;13.30;;;;;;;;;;5124645;27;20032;-74
2022/08/10 13:57:37;;;;;;;16.15;13.30;;;;;;;;;;5092517;28;20097;-74
2022/08/10 14:00:06;;;;;;;10.63;5.95;;;;;;;;;;5092669;28;20033;-75
2022/08/10 14:02:40;;;;;;;9.80;8.52;;;;;;;;;;5090215;28;20016;-75
2022/08/10 14:05:06;;;;;;;16.80;15.02;;;;;;;;;;5086773;28;20558;-76
2022/08/10 14:07:33;;;;;;;6.40;5.47;;;;;;;;;;5086738;28;20103;-76
2022/08/10 14:10:05;;;;;;;14.18;11.20;;;;;;;;;;5091293;28;20386;-75
2022/08/10 14:12:32;;;;;;;14.07;10.88;;;;;;;;;;5090212;28;20046;-74
2022/08/10 14:14:58;;;;;;;7.32;6.55;;;;;;;;;;5090661;28;20463;-74
2022/08/10 14:17:25;;;;;;;11.52;9.93;;;;;;;;;;5092728;28;20093;-75
2022/08/10 14:19:55;;;;;;;8.73;7.82;;;;;;;;;;5091628;28;20467;-75
2022/08/10 14:22:21;;;;;;;7.22;6.43;;;;;;;;;;5090319;28;20039;-75
2022/08/10 14:24:47;;;;;;;16.63;15.02;;;;;;;;;;5123740;27;20016;-75
2022/08/10 14:27:16;;;;;;;21.73;19.52;;;;;;;;;;5091833;28;20119;-76
2022/08/10 14:29:45;;;;;;;17.70;16.05;;;;;;;;;;5090902;28;20059;-77
2022/08/10 14:32:12;;;;;;;13.48;12.27;;;;;;;;;;5123445;27;20016;-76
2022/08/10 14:34:39;;;;;;;12.15;10.95;;;;;;;;;;5089546;28;20028;-77
2022/08/10 14:37:08;;;;;;;7.43;6.53;;;;;;;;;;5091488;28;20039;-76
2022/08/10 14:39:42;;;;;;;5.78;5.13;;;;;;;;;;5089770;28;20024;-76